Time;durP1;ratioP1;P1;durP2;ratioP2;P2;SDS_P1;SDS_P2;PMS_P1;PMS_P2;Temp;Humidity;BMP_temperature;BMP_pressure;BME280_temperature;BME280_humidity;BME280_pressure;Samples;Min_cycle;Max_cycle;Signal;HPM_P1;HPM_P2
2021/10/24 00:00:11;;;;;;;19.70;10.00;;;;;;;3.90;78.89;101286.20;113914;1192;108760;-74
2021/10/24 00:03:12;;;;;;;16.90;9.70;;;;;;;3.91;79.09;101293.08;113678;1193;138412;-75
2021/10/24 00:05:59;;;;;;;19.10;9.70;;;;;;;3.85;79.05;101289.92;113799;1192;97528;-75
2021/10/24 00:08:46;;;;;;;14.70;10.10;;;;;;;3.81;79.03;101293.49;113726;1193;110802;-74
2021/10/24 00:11:34;;;;;;;20.20;11.40;;;;;;;3.78;79.01;101295.35;115145;1192;108562;-74
2021/10/24 00:14:21;;;;;;;19.10;11.00;;;;;;;3.78;79.17;101293.13;114992;1192;109096;-75
2021/10/24 00:17:08;;;;;;;20.20;11.00;;;;;;;3.78;79.17;101296.23;114743;1192;137742;-75
2021/10/24 00:19:55;;;;;;;17.20;11.40;;;;;;;3.76;79.35;101299.08;115135;1192;95789;-75
2021/10/24 00:22:42;;;;;;;18.30;10.80;;;;;;;3.74;79.29;101303.70;114736;1193;138359;-74
2021/10/24 00:25:28;;;;;;;18.30;11.80;;;;;;;3.74;79.24;101303.20;115114;1184;108072;-74
2021/10/24 00:28:15;;;;;;;15.00;11.00;;;;;;;3.73;79.24;101301.63;114988;1192;138161;-74
2021/10/24 00:31:06;;;;;;;23.00;12.80;;;;;;;3.70;79.30;101308.48;114280;1192;97551;-74
2021/10/24 00:33:54;;;;;;;17.80;11.10;;;;;;;3.69;79.29;101313.45;115014;1192;139001;-74
2021/10/24 00:36:41;;;;;;;19.40;11.80;;;;;;;3.67;79.33;101321.01;115071;1192;112448;-74
2021/10/24 00:39:28;;;;;;;22.70;12.70;;;;;;;3.65;79.33;101320.81;115005;1192;137908;-74
2021/10/24 00:42:14;;;;;;;19.70;11.10;;;;;;;3.65;79.52;101319.27;114844;1192;108934;-75
2021/10/24 00:45:00;;;;;;;18.60;10.70;;;;;;;3.70;79.52;101320.17;114749;1193;95991;-75
2021/10/24 00:47:47;;;;;;;17.40;10.70;;;;;;;3.72;79.47;101319.00;114716;1192;139253;-75
2021/10/24 00:50:35;;;;;;;22.00;11.10;;;;;;;3.76;79.43;101319.04;115118;1192;111127;-75
2021/10/24 00:53:22;;;;;;;20.10;10.80;;;;;;;3.77;79.29;101321.30;114683;1192;137794;-75
2021/10/24 00:56:09;;;;;;;16.00;9.80;;;;;;;3.74;79.26;101325.21;114834;1192;107485;-74
2021/10/24 00:58:56;;;;;;;20.00;9.80;;;;;;;3.75;79.44;101325.56;114951;1192;136837;-74
2021/10/24 01:01:43;;;;;;;16.40;9.70;;;;;;;3.78;79.12;101330.09;115032;1192;95507;-74
2021/10/24 01:04:31;;;;;;;15.90;10.00;;;;;;;3.75;79.06;101327.80;114939;1192;138104;-74
2021/10/24 01:07:18;;;;;;;15.60;9.60;;;;;;;3.73;79.09;101338.61;115022;1192;107428;-74
2021/10/24 01:10:07;;;;;;;18.80;9.50;;;;;;;3.73;79.20;101338.61;114705;1192;141821;-75
2021/10/24 01:12:54;;;;;;;17.40;9.50;;;;;;;3.70;79.15;101332.05;114779;1192;96060;-75
2021/10/24 01:15:27;;;;;;;16.40;10.20;;;;;;;3.69;79.16;101332.89;114517;1195;137526;-74
2021/10/24 01:18:14;;;;;;;;;;;;;;;3.68;79.11;101331.49;114488;1195;112269;-75
2021/10/24 01:21:00;;;;;;;19.40;10.80;;;;;;;3.66;79.38;101333.89;114640;1194;108666;-76
2021/10/24 01:23:47;;;;;;;18.90;11.40;;;;;;;3.68;79.49;101335.98;114567;1195;137245;-75
2021/10/24 01:26:35;;;;;;;19.10;11.50;;;;;;;3.71;79.38;101337.73;114633;1195;95611;-76
2021/10/24 01:29:23;;;;;;;20.70;12.10;;;;;;;3.69;79.30;101339.25;114392;1195;138372;-76
2021/10/24 01:32:10;;;;;;;19.00;11.60;;;;;;;3.70;79.37;101344.08;114478;1195;112175;-75
2021/10/24 01:34:59;;;;;;;21.00;11.90;;;;;;;3.76;79.44;101341.42;114543;1195;138669;-75
2021/10/24 01:37:46;;;;;;;20.00;12.30;;;;;;;3.81;79.36;101347.68;114699;1195;108343;-75
2021/10/24 01:40:33;;;;;;;22.60;11.70;;;;;;;3.78;79.05;101341.80;114514;1195;138594;-75
2021/10/24 01:43:20;;;;;;;20.60;11.60;;;;;;;3.78;79.00;101351.92;114644;1195;95996;-74
2021/10/24 01:46:07;;;;;;;22.30;11.40;;;;;;;3.77;79.09;101353.11;114503;1195;138261;-75
2021/10/24 01:48:54;;;;;;;23.30;12.30;;;;;;;3.80;79.17;101350.94;114621;1195;108566;-75
2021/10/24 01:51:42;;;;;;;20.90;13.20;;;;;;;3.81;78.97;101349.23;114515;1195;138651;-75
2021/10/24 01:54:30;;;;;;;24.10;12.50;;;;;;;3.85;79.04;101356.34;114673;1195;96016;-75
2021/10/24 01:57:17;;;;;;;;;;;;;;;3.85;78.96;101362.02;114750;1194;95955;-74
2021/10/24 02:00:04;;;;;;;20.40;11.90;;;;;;;3.88;79.01;101359.81;114599;1195;124009;-74
2021/10/24 02:03:03;;;;;;;21.30;12.70;;;;;;;3.88;78.90;101355.51;114693;1194;107772;-75
2021/10/24 02:06:13;;;;;;;22.60;13.10;;;;;;;3.89;78.79;101355.35;114215;1196;137784;-75
2021/10/24 02:09:00;;;;;;;23.50;13.30;;;;;;;3.88;78.72;101356.54;114551;1195;96598;-75
2021/10/24 02:11:46;;;;;;;24.60;12.80;;;;;;;3.85;78.88;101359.44;114495;1195;137600;-75
2021/10/24 02:14:33;;;;;;;19.10;11.50;;;;;;;3.89;78.89;101365.33;114619;1195;112270;-75
2021/10/24 02:17:19;;;;;;;18.80;11.60;;;;;;;3.85;78.60;101376.98;114554;1195;138251;-75
2021/10/24 02:20:09;;;;;;;26.30;11.10;;;;;;;3.83;78.57;101379.54;114609;1193;107560;-75
2021/10/24 02:22:56;;;;;;;30.00;10.90;;;;;;;3.76;78.49;101380.98;114555;1187;139151;-74
2021/10/24 02:25:43;;;;;;;19.70;10.90;;;;;;;3.73;78.85;101375.60;114661;1194;96224;-77
2021/10/24 02:28:30;;;;;;;19.20;10.70;;;;;;;3.69;78.77;101371.77;114574;1195;138696;-74
2021/10/24 02:31:17;;;;;;;22.40;10.80;;;;;;;3.70;78.83;101373.50;114633;1195;108501;-74
2021/10/24 02:34:26;;;;;;;29.30;10.50;;;;;;;3.69;78.66;101368.15;114572;1195;139259;-74
2021/10/24 02:37:22;;;;;;;19.70;10.50;;;;;;;3.61;78.71;101373.56;114696;1195;95891;-72
2021/10/24 02:40:10;;;;;;;24.10;11.80;;;;;;;3.60;79.04;101380.59;113864;1195;138323;-74
2021/10/24 02:42:57;;;;;;;20.30;11.40;;;;;;;3.62;79.09;101383.04;113478;1195;111093;-74
2021/10/24 02:45:47;;;;;;;22.90;12.00;;;;;;;3.64;79.00;101377.55;113127;1195;108807;-74
2021/10/24 02:48:34;;;;;;;24.30;11.00;;;;;;;3.61;78.98;101386.13;113142;1195;108063;-74
2021/10/24 02:51:22;;;;;;;;;;;;;;;3.59;79.15;101390.70;113108;1195;97524;-75
2021/10/24 02:54:10;;;;;;;26.60;11.70;;;;;;;3.60;79.35;101398.66;114561;1194;125193;-75
2021/10/24 02:57:00;;;;;;;23.60;12.50;;;;;;;3.57;79.23;101406.67;114652;1195;112983;-75
2021/10/24 02:59:46;;;;;;;24.40;12.00;;;;;;;3.59;79.41;101413.59;114557;1194;138485;-76
2021/10/24 03:02:33;;;;;;;18.90;11.50;;;;;;;3.61;79.13;101417.08;113618;1180;108540;-75
2021/10/24 03:05:20;;;;;;;19.20;10.80;;;;;;;3.60;79.17;101422.91;114694;1192;138132;-74
2021/10/24 03:08:09;;;;;;;22.90;12.20;;;;;;;3.61;79.45;101429.27;114813;1193;96080;-74
2021/10/24 03:10:55;;;;;;;25.00;12.30;;;;;;;3.56;79.23;101421.45;114717;1192;138008;-74
2021/10/24 03:13:42;;;;;;;34.80;13.40;;;;;;;3.53;79.37;101421.41;114796;1193;108478;-76
2021/10/24 03:16:30;;;;;;;28.60;15.10;;;;;;;3.54;79.42;101428.98;114677;1193;137744;-74
2021/10/24 03:19:18;;;;;;;26.50;14.60;;;;;;;3.61;79.76;101430.99;114784;1192;96356;-74
2021/10/24 03:22:09;;;;;;;30.80;15.80;;;;;;;3.70;79.91;101436.79;114798;1192;95906;-74
2021/10/24 03:24:55;;;;;;;30.30;15.80;;;;;;;3.73;79.75;101438.89;114668;1192;137379;-73
2021/10/24 03:27:42;;;;;;;39.60;16.50;;;;;;;3.72;79.47;101440.77;114810;1192;108931;-73
2021/10/24 03:30:32;;;;;;;28.20;16.50;;;;;;;3.70;79.52;101440.58;114741;1192;137475;-74
2021/10/24 03:33:19;;;;;;;30.10;16.10;;;;;;;3.68;79.51;101442.96;114782;1192;95987;-73
2021/10/24 03:36:05;;;;;;;33.80;18.30;;;;;;;3.68;79.65;101449.66;114643;1185;138267;-74
2021/10/24 03:38:52;;;;;;;31.40;17.20;;;;;;;3.72;79.40;101455.05;114837;1192;112149;-73
2021/10/24 03:41:39;;;;;;;33.50;17.80;;;;;;;3.72;79.81;101452.98;114636;1193;138105;-74
2021/10/24 03:44:28;;;;;;;28.30;17.10;;;;;;;3.73;79.79;101456.95;114670;1194;107542;-74
2021/10/24 03:47:15;;;;;;;30.90;17.50;;;;;;;3.77;79.69;101462.02;114707;1192;138464;-74
2021/10/24 03:50:05;;;;;;;32.20;17.20;;;;;;;3.74;79.59;101466.61;114863;1192;95822;-73
2021/10/24 03:52:52;;;;;;;32.80;18.10;;;;;;;3.75;79.64;101464.73;114632;1192;138236;-73
2021/10/24 03:55:39;;;;;;;35.50;20.10;;;;;;;3.73;79.54;101464.17;114756;1192;108662;-74
2021/10/24 03:58:26;;;;;;;36.90;19.70;;;;;;;3.72;79.75;101473.80;114791;1192;107447;-74
2021/10/24 04:01:14;;;;;;;33.20;18.60;;;;;;;3.75;79.74;101476.94;114624;1192;138091;-73
2021/10/24 04:04:01;;;;;;;36.10;19.40;;;;;;;3.79;79.78;101479.77;114711;1193;95862;-74
2021/10/24 04:06:47;;;;;;;38.80;19.60;;;;;;;3.88;79.78;101479.03;114625;1193;139396;-73
2021/10/24 04:09:34;;;;;;;33.60;18.80;;;;;;;3.92;79.72;101478.06;114747;1193;108563;-74
2021/10/24 04:12:21;;;;;;;35.10;19.70;;;;;;;3.91;79.64;101474.11;114583;1193;138295;-75
2021/10/24 04:15:08;;;;;;;39.20;18.70;;;;;;;3.93;79.31;101473.42;114719;1193;95858;-74
2021/10/24 04:17:55;;;;;;;35.00;19.20;;;;;;;3.97;79.49;101475.39;114635;1195;140568;-74
2021/10/24 04:20:42;;;;;;;37.10;21.00;;;;;;;4.01;79.19;101470.98;114722;1193;113112;-74
2021/10/24 04:23:29;;;;;;;36.20;19.40;;;;;;;3.96;78.98;101466.61;114614;1193;138395;-74
2021/10/24 04:26:17;;;;;;;37.00;19.20;;;;;;;3.93;79.11;101465.17;114706;1193;108523;-74
2021/10/24 04:29:03;;;;;;;34.60;19.50;;;;;;;3.88;78.93;101462.36;114542;1194;138979;-74
2021/10/24 04:31:51;;;;;;;36.30;19.90;;;;;;;3.90;79.08;101470.64;114734;1193;95757;-73
2021/10/24 04:34:38;;;;;;;37.20;19.60;;;;;;;3.91;79.26;101473.91;114770;1193;112203;-74
2021/10/24 04:37:25;;;;;;;37.70;20.40;;;;;;;3.97;79.49;101475.59;114663;1193;138021;-73
2021/10/24 04:40:11;;;;;;;31.90;19.00;;;;;;;4.00;79.21;101480.77;114702;1193;108137;-74
2021/10/24 04:43:07;;;;;;;34.80;19.10;;;;;;;3.94;78.97;101475.86;114574;1193;139546;-74
2021/10/24 04:45:55;;;;;;;;;;;;;;;3.91;79.28;101480.29;114732;1193;95817;-74
2021/10/24 04:48:42;;;;;;;41.70;19.60;;;;;;;3.94;79.24;101482.22;114638;1193;124092;-74
2021/10/24 04:51:29;;;;;;;34.80;19.80;;;;;;;3.94;79.37;101484.47;114767;1186;108476;-74
2021/10/24 04:54:16;;;;;;;37.10;18.90;;;;;;;3.93;79.36;101488.77;114611;1193;138170;-74
2021/10/24 04:57:03;;;;;;;34.40;19.20;;;;;;;3.84;79.20;101493.96;114692;1193;95590;-75
2021/10/24 04:59:50;;;;;;;38.00;20.70;;;;;;;3.83;79.38;101494.98;114619;1193;138442;-75
2021/10/24 05:02:36;;;;;;;39.90;19.60;;;;;;;3.85;79.41;101502.92;114701;1194;112539;-75
2021/10/24 05:05:25;;;;;;;39.80;20.50;;;;;;;3.82;79.63;101504.27;114636;1193;137660;-74
2021/10/24 05:08:12;;;;;;;36.50;20.60;;;;;;;3.81;79.50;101506.99;114733;1193;108905;-74
2021/10/24 05:10:59;;;;;;;34.20;19.20;;;;;;;3.82;79.57;101509.08;114729;1193;96071;-75
2021/10/24 05:13:46;;;;;;;33.80;18.90;;;;;;;3.85;79.64;101512.90;114789;1193;96453;-75
2021/10/24 05:16:33;;;;;;;32.60;17.30;;;;;;;3.88;79.65;101512.94;114763;1193;112191;-75
2021/10/24 05:19:21;;;;;;;38.90;16.90;;;;;;;3.83;79.33;101511.67;114618;1193;138352;-75
2021/10/24 05:22:07;;;;;;;29.30;16.90;;;;;;;3.79;79.57;101514.53;114696;1193;108426;-76
2021/10/24 05:24:54;;;;;;;28.80;17.40;;;;;;;3.78;79.65;101513.48;114598;1193;139206;-75
2021/10/24 05:27:42;;;;;;;25.60;16.30;;;;;;;3.78;79.57;101518.64;114671;1193;95832;-75
2021/10/24 05:30:29;;;;;;;28.00;15.90;;;;;;;3.74;79.68;101517.01;114652;1193;138013;-75
2021/10/24 05:33:16;;;;;;;28.80;17.00;;;;;;;3.68;79.76;101516.41;114736;1193;108904;-75
2021/10/24 05:36:28;;;;;;;27.10;16.00;;;;;;;3.66;79.76;101525.15;114410;1195;138267;-75
2021/10/24 05:39:15;;;;;;;29.60;15.80;;;;;;;3.72;80.03;101529.71;114681;1193;95812;-75
2021/10/24 05:42:02;;;;;;;26.50;16.10;;;;;;;3.76;79.87;101533.04;114581;1194;137794;-75
2021/10/24 05:44:49;;;;;;;27.60;15.70;;;;;;;3.79;80.18;101537.58;114746;1193;112200;-76
2021/10/24 05:47:36;;;;;;;28.30;16.30;;;;;;;3.78;80.01;101538.08;114575;1193;137780;-73
2021/10/24 05:50:27;;;;;;;22.70;15.00;;;;;;;3.76;79.98;101535.79;114717;1194;109061;-73
2021/10/24 05:53:16;;;;;;;25.70;15.50;;;;;;;3.73;79.79;101542.27;114748;1193;95841;-73
2021/10/24 05:56:05;;;;;;;26.60;14.50;;;;;;;3.72;79.86;101535.05;114692;1193;139172;-75
2021/10/24 05:58:57;;;;;;;26.40;15.40;;;;;;;3.70;79.88;101538.96;114644;1195;112612;-75
2021/10/24 06:02:10;;;;;;;28.10;15.40;;;;;;;3.69;79.95;101546.52;114408;1194;137715;-75
2021/10/24 06:05:16;;;;;;;26.00;14.50;;;;;;;3.70;80.10;101555.30;114723;1193;108597;-75
2021/10/24 06:08:03;;;;;;;23.20;14.80;;;;;;;3.72;80.11;101567.56;114662;1193;138039;-75
2021/10/24 06:10:53;;;;;;;29.20;16.90;;;;;;;3.73;80.08;101570.48;114705;1193;95864;-75
2021/10/24 06:13:42;;;;;;;29.30;17.00;;;;;;;3.74;80.01;101574.30;114593;1193;137794;-76
2021/10/24 06:16:29;;;;;;;26.40;16.50;;;;;;;3.76;80.37;101576.41;114764;1193;108464;-75
2021/10/24 06:19:16;;;;;;;24.90;16.00;;;;;;;3.79;80.25;101580.42;114647;1193;138965;-75
2021/10/24 06:22:04;;;;;;;24.90;15.50;;;;;;;3.81;80.34;101589.22;114744;1185;95972;-74
2021/10/24 06:24:52;;;;;;;28.60;16.00;;;;;;;3.90;80.38;101588.84;114596;1193;138844;-75
2021/10/24 06:27:45;;;;;;;26.50;16.30;;;;;;;3.99;80.34;101591.59;114714;1186;111206;-74
2021/10/24 06:30:32;;;;;;;24.90;15.20;;;;;;;4.05;80.32;101596.31;114619;1193;138312;-75
2021/10/24 06:33:31;;;;;;;23.80;15.10;;;;;;;4.10;80.16;101600.52;114716;1193;107538;-74
2021/10/24 06:36:41;;;;;;;25.60;15.70;;;;;;;4.14;79.89;101601.30;114390;1193;142138;-74
2021/10/24 06:39:39;;;;;;;22.80;15.80;;;;;;;4.17;79.73;101604.27;114715;1193;95933;-74
2021/10/24 06:42:25;;;;;;;25.90;15.30;;;;;;;4.14;79.70;101607.33;114585;1193;138301;-74
2021/10/24 06:45:44;;;;;;;23.70;14.90;;;;;;;4.15;79.72;101616.13;114595;1195;108800;-75
2021/10/24 06:48:49;;;;;;;26.10;16.00;;;;;;;4.20;79.53;101618.08;114624;1193;138662;-74
2021/10/24 06:51:41;;;;;;;23.80;15.60;;;;;;;4.22;79.51;101624.32;114735;1193;95764;-74
2021/10/24 06:54:58;;;;;;;30.30;16.80;;;;;;;4.25;79.51;101625.55;114160;1193;137894;-75
2021/10/24 06:58:04;;;;;;;26.50;15.70;;;;;;;4.29;79.47;101629.05;113402;1193;112456;-74
2021/10/24 07:01:10;;;;;;;23.90;15.00;;;;;;;4.34;79.65;101634.66;113303;1193;138727;-73
2021/10/24 07:04:16;;;;;;;23.80;15.80;;;;;;;4.40;79.36;101635.79;114768;1193;107080;-74
2021/10/24 07:07:14;;;;;;;22.00;14.40;;;;;;;4.53;79.39;101631.85;114618;1193;139596;-74
2021/10/24 07:10:14;;;;;;;25.30;15.20;;;;;;;4.61;79.18;101634.02;114713;1193;95685;-74
2021/10/24 07:13:02;;;;;;;25.20;14.70;;;;;;;4.68;79.07;101632.91;114603;1193;138331;-74
2021/10/24 07:15:49;;;;;;;25.30;14.90;;;;;;;4.74;78.95;101637.83;114702;1193;108415;-74
2021/10/24 07:18:35;;;;;;;27.40;16.30;;;;;;;4.77;78.35;101641.31;114581;1194;139044;-73
2021/10/24 07:21:22;;;;;;;27.10;18.40;;;;;;;4.76;78.63;101650.78;114745;1193;95682;-73
2021/10/24 07:24:09;;;;;;;24.00;15.40;;;;;;;4.80;78.66;101660.14;114635;1193;138654;-73
2021/10/24 07:26:58;;;;;;;21.00;13.30;;;;;;;4.79;78.22;101663.56;114678;1193;112084;-74
2021/10/24 07:29:45;;;;;;;23.00;14.30;;;;;;;4.82;78.07;101657.57;114653;1193;107879;-73
2021/10/24 07:32:32;;;;;;;23.70;14.80;;;;;;;4.87;78.19;101662.31;114658;1193;108715;-73
2021/10/24 07:35:37;;;;;;;20.50;13.60;;;;;;;4.90;77.90;101665.80;114687;1194;95871;-73
2021/10/24 07:38:24;;;;;;;20.90;13.70;;;;;;;4.91;77.93;101668.58;114627;1194;139377;-74
2021/10/24 07:41:12;;;;;;;20.60;13.90;;;;;;;4.94;78.05;101674.64;114724;1193;112170;-74
2021/10/24 07:43:59;;;;;;;23.40;14.50;;;;;;;4.96;77.82;101677.94;114547;1193;139306;-75
2021/10/24 07:46:46;;;;;;;20.10;13.40;;;;;;;5.01;77.84;101682.83;114722;1193;107336;-75
2021/10/24 07:49:34;;;;;;;;;;;;;;;4.99;77.53;101686.77;114644;1193;139471;-74
2021/10/24 07:52:20;;;;;;;20.70;13.20;;;;;;;4.99;77.35;101686.59;114757;1193;96447;-75
2021/10/24 07:55:09;;;;;;;23.80;13.70;;;;;;;5.07;77.70;101684.98;114641;1193;137551;-75
2021/10/24 07:57:58;;;;;;;19.90;12.90;;;;;;;5.10;77.37;101688.48;114718;1193;107574;-74
2021/10/24 08:00:49;;;;;;;22.90;13.60;;;;;;;5.04;77.06;101691.17;114609;1193;139226;-73
2021/10/24 08:03:36;;;;;;;24.70;15.40;;;;;;;5.08;77.23;101693.45;114710;1193;95592;-73
2021/10/24 08:06:24;;;;;;;25.10;14.90;;;;;;;5.25;77.58;101697.64;114640;1193;138449;-73
2021/10/24 08:09:13;;;;;;;21.70;14.20;;;;;;;5.35;76.94;101699.30;114721;1193;112293;-73
2021/10/24 08:12:05;;;;;;;23.20;14.30;;;;;;;5.30;76.51;101697.70;114691;1193;108495;-73
2021/10/24 08:14:52;;;;;;;22.50;14.40;;;;;;;5.27;76.90;101696.98;114559;1193;138379;-73
2021/10/24 08:17:39;;;;;;;28.20;17.40;;;;;;;5.36;76.81;101694.67;114717;1193;95989;-74
2021/10/24 08:20:46;;;;;;;24.30;15.20;;;;;;;5.44;76.49;101684.08;114617;1193;138103;-74
2021/10/24 08:23:34;;;;;;;25.40;16.50;;;;;;;5.43;76.65;101685.63;114716;1193;111940;-74
2021/10/24 08:26:22;;;;;;;22.10;15.00;;;;;;;5.49;76.37;101686.20;114584;1193;138320;-74
2021/10/24 08:29:10;;;;;;;21.70;14.50;;;;;;;5.46;76.03;101692.04;114661;1193;108621;-75
2021/10/24 08:32:16;;;;;;;22.20;14.30;;;;;;;5.43;76.13;101695.11;114581;1193;138035;-74
2021/10/24 08:35:07;;;;;;;23.90;14.00;;;;;;;5.48;76.15;101694.98;114670;1195;96431;-74
2021/10/24 08:37:53;;;;;;;21.20;13.20;;;;;;;5.51;76.06;101699.67;114673;1193;138814;-73
2021/10/24 08:40:45;;;;;;;24.00;13.90;;;;;;;5.56;75.89;101699.91;114777;1193;108424;-73
2021/10/24 08:43:34;;;;;;;22.70;14.00;;;;;;;5.55;75.20;101701.44;114591;1193;138027;-74
2021/10/24 08:46:22;;;;;;;22.30;14.90;;;;;;;5.54;75.09;101701.25;114716;1194;96449;-74
2021/10/24 08:49:09;;;;;;;24.20;15.50;;;;;;;5.64;75.11;101710.71;114606;1193;138793;-74
2021/10/24 08:51:56;;;;;;;;;;;;;;;5.78;75.12;101711.89;114725;1193;112266;-74
2021/10/24 08:54:43;;;;;;;29.00;17.40;;;;;;;5.87;75.06;101711.29;114650;1193;125796;-74
2021/10/24 08:57:30;;;;;;;35.20;22.10;;;;;;;5.85;74.73;101713.86;114728;1193;108551;-74
2021/10/24 09:00:17;;;;;;;35.00;21.20;;;;;;;6.10;75.43;101715.88;114740;1193;95738;-74
2021/10/24 09:03:09;;;;;;;33.40;19.90;;;;;;;6.39;75.06;101716.48;114573;1193;137963;-74
2021/10/24 09:05:57;;;;;;;30.70;19.30;;;;;;;6.50;74.50;101716.77;114717;1193;112492;-74
2021/10/24 09:08:43;;;;;;;31.90;19.30;;;;;;;6.48;74.14;101719.16;114654;1193;137696;-75
2021/10/24 09:11:30;;;;;;;28.10;19.60;;;;;;;6.53;74.30;101721.27;114680;1193;108522;-74
2021/10/24 09:14:42;;;;;;;33.10;20.50;;;;;;;6.57;74.14;101718.70;114627;1193;137737;-74
2021/10/24 09:17:31;;;;;;;33.70;20.10;;;;;;;6.63;73.96;101719.44;114769;1193;95940;-74
2021/10/24 09:20:25;;;;;;;35.90;21.00;;;;;;;6.65;73.95;101720.50;114627;1193;138286;-74
2021/10/24 09:23:14;;;;;;;38.80;22.00;;;;;;;6.73;73.92;101716.23;114784;1193;108876;-73
2021/10/24 09:26:01;;;;;;;34.90;22.20;;;;;;;6.88;73.89;101719.45;114614;1193;138377;-76
2021/10/24 09:29:06;;;;;;;34.00;21.90;;;;;;;6.99;73.67;101718.64;114708;1193;95996;-73
2021/10/24 09:31:53;;;;;;;31.80;21.20;;;;;;;7.03;73.24;101722.48;114629;1193;137685;-75
2021/10/24 09:34:39;;;;;;;29.30;19.90;;;;;;;7.00;72.65;101725.23;114734;1193;112069;-75
2021/10/24 09:38:03;;;;;;;32.00;19.70;;;;;;;6.99;72.58;101730.05;114610;1193;139286;-75
2021/10/24 09:41:05;;;;;;;31.80;19.80;;;;;;;7.06;72.47;101738.07;114691;1194;106751;-75
2021/10/24 09:44:16;;;;;;;36.40;23.30;;;;;;;7.13;72.37;101732.56;114511;1194;137738;-76
2021/10/24 09:47:03;;;;;;;33.50;21.10;;;;;;;7.35;72.41;101735.45;114761;1193;95968;-74
2021/10/24 09:49:50;;;;;;;;;;;;;;;7.52;71.95;101733.27;114655;1193;137542;-74
2021/10/24 09:52:38;;;;;;;29.50;19.50;;;;;;;7.57;71.64;101737.81;114759;1192;108899;-75
2021/10/24 09:55:26;;;;;;;26.10;18.70;;;;;;;7.68;71.13;101738.02;114528;1195;138692;-75
2021/10/24 09:58:15;;;;;;;25.80;17.70;;;;;;;7.96;70.72;101736.19;114717;1193;95684;-75
2021/10/24 10:01:03;;;;;;;26.20;17.90;;;;;;;8.40;70.63;101734.36;114571;1193;137744;-74
2021/10/24 10:03:50;;;;;;;28.50;18.90;;;;;;;8.89;69.96;101735.92;114704;1193;112342;-74
2021/10/24 10:06:37;;;;;;;26.70;19.00;;;;;;;9.06;68.97;101737.27;114756;1193;107638;-76
2021/10/24 10:09:23;;;;;;;25.60;18.00;;;;;;;9.20;68.72;101736.73;114623;1193;138157;-75
2021/10/24 10:12:13;;;;;;;30.40;20.50;;;;;;;9.36;67.91;101738.08;114720;1193;95679;-74
2021/10/24 10:15:02;;;;;;;29.20;19.40;;;;;;;9.42;67.88;101741.52;114625;1193;138001;-75
2021/10/24 10:17:56;;;;;;;28.40;18.60;;;;;;;9.51;67.35;101749.11;114783;1193;112277;-75
2021/10/24 10:20:46;;;;;;;27.40;18.80;;;;;;;9.63;67.11;101746.29;114608;1186;138594;-74
2021/10/24 10:23:40;;;;;;;27.90;17.90;;;;;;;10.05;67.36;101746.60;114711;1193;107844;-74
2021/10/24 10:26:30;;;;;;;21.50;15.90;;;;;;;10.55;66.59;101749.58;114528;1193;137924;-74
2021/10/24 10:29:53;;;;;;;22.50;16.70;;;;;;;11.26;65.95;101743.48;114705;1193;95772;-74
2021/10/24 10:32:47;;;;;;;22.10;16.60;;;;;;;12.02;64.75;101738.90;114571;1193;137760;-73
2021/10/24 10:35:52;;;;;;;22.50;16.20;;;;;;;12.55;63.05;101737.92;114757;1193;107738;-74
2021/10/24 10:38:45;;;;;;;23.30;16.70;;;;;;;12.86;62.82;101737.73;114608;1193;138814;-73
2021/10/24 10:41:35;;;;;;;23.30;17.10;;;;;;;13.28;61.89;101736.45;114738;1193;95823;-73
2021/10/24 10:44:22;;;;;;;24.20;16.30;;;;;;;13.39;60.63;101737.80;114657;1193;139859;-73
2021/10/24 10:47:50;;;;;;;20.10;16.10;;;;;;;13.63;60.91;101732.06;114790;1193;112369;-73
2021/10/24 10:50:40;;;;;;;21.60;16.40;;;;;;;14.07;59.96;101727.42;114659;1193;139036;-73
2021/10/24 10:53:32;;;;;;;20.60;15.70;;;;;;;14.29;59.01;101726.02;114700;1193;108705;-73
2021/10/24 10:56:43;;;;;;;18.60;15.00;;;;;;;14.33;58.26;101729.06;114610;1193;143157;-73
2021/10/24 10:59:39;;;;;;;19.70;14.30;;;;;;;14.27;57.77;101728.19;114709;1193;95972;-73
2021/10/24 11:02:28;;;;;;;18.80;13.40;;;;;;;14.23;57.47;101723.21;114576;1193;138203;-74
2021/10/24 11:05:35;;;;;;;20.10;14.20;;;;;;;14.28;57.32;101726.05;114692;1193;108661;-73
2021/10/24 11:08:46;;;;;;;17.60;13.60;;;;;;;14.34;56.52;101726.25;114582;1194;139564;-74
2021/10/24 11:11:37;;;;;;;18.00;13.70;;;;;;;14.36;56.22;101724.10;114733;1193;95839;-74
2021/10/24 11:14:32;;;;;;;20.80;14.50;;;;;;;14.27;55.80;101719.96;114560;1193;137896;-74
2021/10/24 11:17:41;;;;;;;18.80;14.40;;;;;;;14.26;56.03;101717.01;114763;1193;112174;-74
2021/10/24 11:20:39;;;;;;;17.00;13.50;;;;;;;14.37;56.23;101715.52;114650;1193;139291;-73
2021/10/24 11:23:30;;;;;;;26.20;18.30;;;;;;;14.56;56.13;101714.53;114736;1193;108532;-74
2021/10/24 11:26:18;;;;;;;20.80;14.50;;;;;;;14.76;55.80;101710.70;114620;1193;139238;-73
2021/10/24 11:29:05;;;;;;;19.60;14.00;;;;;;;14.95;55.42;101709.84;113610;1193;97509;-75
2021/10/24 11:32:23;;;;;;;21.60;16.30;;;;;;;15.12;55.05;101707.29;113162;1193;137905;-74
2021/10/24 11:35:13;;;;;;;18.20;13.90;;;;;;;15.22;54.27;101704.70;113248;1193;108603;-74
2021/10/24 11:38:05;;;;;;;21.60;14.30;;;;;;;15.19;53.86;101701.48;113068;1194;137938;-74
2021/10/24 11:40:52;;;;;;;19.50;14.60;;;;;;;15.15;53.50;101704.39;113300;1194;97514;-74
2021/10/24 11:43:39;;;;;;;17.90;12.80;;;;;;;15.15;53.39;101703.16;114643;1193;138076;-75
2021/10/24 11:46:25;;;;;;;18.50;13.50;;;;;;;15.05;52.77;101703.42;114830;1193;112603;-73
2021/10/24 11:49:12;;;;;;;17.90;13.30;;;;;;;14.94;53.05;101702.53;114605;1193;138140;-73
2021/10/24 11:51:59;;;;;;;18.50;13.50;;;;;;;14.85;52.69;101705.38;114767;1193;109455;-74
2021/10/24 11:55:09;;;;;;;17.90;13.40;;;;;;;14.76;52.86;101702.48;114775;1193;95821;-74
2021/10/24 12:01:16;;;;;;;19.50;13.50;;;;;;;14.57;52.75;101710.16;114698;1193;113160;-76
2021/10/24 12:04:08;;;;;;;18.80;12.90;;;;;;;14.51;52.85;101706.78;114603;1193;137723;-73
2021/10/24 12:07:04;;;;;;;16.30;12.50;;;;;;;14.46;52.99;101712.34;114704;1193;108447;-76
2021/10/24 12:09:51;;;;;;;16.80;12.50;;;;;;;14.47;52.89;101715.11;114584;1193;137885;-75
2021/10/24 12:12:38;;;;;;;18.90;13.20;;;;;;;14.49;53.08;101713.83;114754;1193;95837;-73
2021/10/24 12:15:37;;;;;;;17.50;13.10;;;;;;;14.54;52.72;101713.89;114575;1193;137786;-74
2021/10/24 12:18:35;;;;;;;19.90;13.30;;;;;;;14.47;52.50;101711.45;114787;1193;107708;-74
2021/10/24 12:21:24;;;;;;;;;;;;;;;14.36;52.63;101713.96;114666;1193;138468;-73
2021/10/24 12:24:20;;;;;;;21.80;14.00;;;;;;;14.29;52.56;101716.23;114763;1193;96224;-74
2021/10/24 12:27:10;;;;;;;21.70;14.60;;;;;;;14.21;52.57;101711.52;114617;1195;138876;-75
2021/10/24 12:29:58;;;;;;;17.10;12.70;;;;;;;14.17;52.71;101717.70;114752;1193;111690;-74
2021/10/24 12:32:54;;;;;;;18.40;13.50;;;;;;;14.16;52.74;101710.74;114660;1193;140805;-75
2021/10/24 12:35:47;;;;;;;18.50;12.80;;;;;;;14.10;52.38;101715.45;114747;1193;108545;-74
2021/10/24 12:38:59;;;;;;;19.30;14.80;;;;;;;14.01;52.84;101710.08;114681;1193;137876;-73
2021/10/24 12:41:47;;;;;;;19.80;13.10;;;;;;;14.09;52.92;101710.23;114802;1193;95760;-74
2021/10/24 12:44:35;;;;;;;19.90;13.60;;;;;;;14.15;53.00;101706.92;114706;1193;137714;-74
2021/10/24 12:47:22;;;;;;;20.20;14.10;;;;;;;14.12;52.70;101700.02;114818;1193;108601;-73
2021/10/24 12:50:09;;;;;;;21.50;14.20;;;;;;;14.11;52.81;101702.48;114640;1193;138276;-73
2021/10/24 12:53:00;;;;;;;20.30;13.90;;;;;;;14.17;52.97;101698.83;114794;1193;95793;-74